Time;durP1;ratioP1;P1;durP2;ratioP2;P2;SDS_P1;SDS_P2;PMS_P1;PMS_P2;Temp;Humidity;BMP_temperature;BMP_pressure;BME280_temperature;BME280_humidity;BME280_pressure;Samples;Min_cycle;Max_cycle;Signal;HPM_P1;HPM_P2
2022/06/12 00:00:09;;;;;;;0.85;0.85;;;;;;;21.83;48.64;101675.53;5116310;28;20035;-79
2022/06/12 00:02:42;;;;;;;1.35;1.30;;;;;;;21.80;48.28;101681.06;5130884;28;20057;-79
2022/06/12 00:05:16;;;;;;;0.40;0.40;;;;;;;21.78;48.04;101678.50;5130064;28;20070;-79
2022/06/12 00:07:46;;;;;;;0.70;0.70;;;;;;;21.76;48.20;101682.22;5134751;28;20074;-79
2022/06/12 00:10:18;;;;;;;5.80;2.08;;;;;;;21.74;48.34;101679.59;5133187;28;20092;-79
2022/06/12 00:12:49;;;;;;;5.07;2.30;;;;;;;21.74;48.65;101686.78;5153979;28;20492;-79
2022/06/12 00:15:24;;;;;;;0.93;0.93;;;;;;;21.72;48.68;101676.19;5117845;28;20082;-79
2022/06/12 00:17:56;;;;;;;0.30;0.30;;;;;;;21.70;48.95;101684.28;5135201;28;20860;-79
2022/06/12 00:20:27;;;;;;;1.60;1.10;;;;;;;21.68;48.95;101683.53;5133135;28;20051;-79
2022/06/12 00:22:59;;;;;;;0.50;0.50;;;;;;;21.65;48.96;101690.84;5139401;28;20530;-79
2022/06/12 00:25:30;;;;;;;1.15;0.82;;;;;;;21.62;48.73;101675.84;5152270;28;20043;-78
2022/06/12 00:28:01;;;;;;;2.17;1.70;;;;;;;21.61;49.07;101679.47;5151259;28;20031;-79
2022/06/12 00:30:33;;;;;;;0.30;0.30;;;;;;;21.58;49.21;101687.69;5133818;28;20040;-79
2022/06/12 00:33:03;;;;;;;1.23;0.82;;;;;;;21.60;49.20;101677.78;5134436;28;20553;-79
2022/06/12 00:35:35;;;;;;;2.40;0.85;;;;;;;21.63;49.26;101679.41;5120697;28;20047;-79
2022/06/12 00:38:06;;;;;;;1.67;1.13;;;;;;;21.53;49.07;101671.88;5147969;28;20027;-79
2022/06/12 00:40:36;;;;;;;0.32;0.32;;;;;;;21.50;48.88;101676.56;5157648;28;20042;-79
2022/06/12 00:43:07;;;;;;;0.40;0.40;;;;;;;21.45;49.15;101686.63;5156163;28;20077;-79
2022/06/12 00:45:52;;;;;;;0.30;0.30;;;;;;;21.26;50.71;101690.38;5149265;28;20039;-79
2022/06/12 00:48:26;;;;;;;0.75;0.75;;;;;;;21.32;49.65;101681.16;5165952;28;20038;-79
2022/06/12 00:51:19;;;;;;;0.57;0.57;;;;;;;21.28;49.18;101683.09;5138367;28;20054;-79
2022/06/12 00:53:55;;;;;;;0.68;0.68;;;;;;;21.27;49.43;101683.22;5119397;28;20078;-79
2022/06/12 00:56:38;;;;;;;0.55;0.55;;;;;;;21.26;49.27;101684.16;5120369;28;20055;-79
2022/06/12 00:59:11;;;;;;;;;;;;;;;21.19;49.70;101678.31;5133896;28;20035;-79
2022/06/12 01:01:49;;;;;;;0.38;0.38;;;;;;;21.15;49.58;101682.97;5152287;28;19910;-79
2022/06/12 01:07:15;;;;;;;0.77;0.77;;;;;;;21.07;49.34;101679.88;5133922;28;20026;-79
2022/06/12 01:09:48;;;;;;;1.15;1.08;;;;;;;21.02;49.38;101674.81;5133736;28;20039;-79
2022/06/12 01:12:24;;;;;;;0.75;0.75;;;;;;;20.99;49.53;101680.31;5142387;28;20034;-79
2022/06/12 01:15:06;;;;;;;0.85;0.85;;;;;;;20.97;49.54;101679.50;5135665;28;20407;-79
2022/06/12 01:17:39;;;;;;;1.00;1.00;;;;;;;20.96;49.55;101675.13;5148544;28;20147;-79
2022/06/12 01:20:14;;;;;;;0.22;0.22;;;;;;;20.86;49.73;101681.94;5147118;28;20054;-78
2022/06/12 01:22:45;;;;;;;0.22;0.22;;;;;;;20.87;49.70;101678.31;5158489;28;20054;-79
2022/06/12 01:25:28;;;;;;;4.63;0.65;;;;;;;20.80;49.92;101680.47;5140268;28;20042;-79
2022/06/12 01:28:02;;;;;;;;;;;;;;;20.79;49.69;101680.53;5126759;28;20487;-79
2022/06/12 01:30:33;;;;;;;0.90;0.90;;;;;;;20.72;49.90;101683.50;5138718;28;19933;-79
2022/06/12 01:33:19;;;;;;;0.88;0.88;;;;;;;20.70;49.42;101682.72;5150587;28;20026;-79
2022/06/12 01:36:01;;;;;;;1.40;1.15;;;;;;;20.65;49.83;101682.13;5136287;28;20466;-79
2022/06/12 01:38:37;;;;;;;4.82;1.02;;;;;;;20.63;49.74;101675.16;5133456;28;20069;-79
2022/06/12 01:41:10;;;;;;;3.58;1.38;;;;;;;20.56;49.77;101670.16;5131141;28;20037;-79
2022/06/12 01:43:48;;;;;;;1.00;0.95;;;;;;;20.51;49.93;101669.53;5116224;28;20146;-79
2022/06/12 01:46:24;;;;;;;0.55;0.55;;;;;;;20.52;49.96;101673.09;5129634;28;20043;-78
2022/06/12 01:49:14;;;;;;;0.82;0.63;;;;;;;20.45;49.88;101678.72;5117944;28;20086;-79
2022/06/12 01:51:52;;;;;;;7.68;1.50;;;;;;;20.42;50.27;101676.25;5131022;28;20039;-79
2022/06/12 01:54:33;;;;;;;0.52;0.52;;;;;;;20.40;50.32;101675.44;5129674;28;20069;-79
2022/06/12 01:57:25;;;;;;;0.57;0.45;;;;;;;20.35;50.16;101666.84;5118068;28;20283;-79
2022/06/12 02:00:02;;;;;;;0.45;0.45;;;;;;;20.28;50.63;101668.97;5133211;28;20053;-79
2022/06/12 02:02:40;;;;;;;0.57;0.57;;;;;;;20.26;50.66;101676.19;5101157;28;20058;-78
2022/06/12 02:05:43;;;;;;;1.38;0.82;;;;;;;20.22;50.13;101665.75;5125147;28;20043;-78
2022/06/12 02:08:19;;;;;;;0.60;0.60;;;;;;;20.17;50.60;101681.16;5132688;28;20047;-79
2022/06/12 02:14:04;;;;;;;7.60;1.02;;;;;;;20.05;50.31;101678.16;5149688;28;20499;-79
2022/06/12 02:16:40;;;;;;;0.30;0.30;;;;;;;20.02;50.60;101670.34;5130380;28;20131;-79
2022/06/12 02:19:18;;;;;;;1.00;1.00;;;;;;;20.00;50.55;101674.91;5117749;28;20027;-79
2022/06/12 02:21:52;;;;;;;0.47;0.47;;;;;;;19.94;50.47;101669.88;5156080;28;20038;-79
2022/06/12 02:24:33;;;;;;;1.17;1.15;;;;;;;19.90;50.62;101673.63;5135977;28;20617;-79
2022/06/12 02:27:09;;;;;;;0.40;0.40;;;;;;;19.89;50.81;101671.91;5146929;28;20498;-79
2022/06/12 02:29:49;;;;;;;0.50;0.50;;;;;;;19.86;50.76;101672.09;5118615;28;20043;-79
2022/06/12 02:32:26;;;;;;;0.43;0.43;;;;;;;19.88;51.06;101670.19;5145713;28;20040;-79
2022/06/12 02:35:03;;;;;;;3.97;1.10;;;;;;;19.80;50.81;101675.88;5137858;28;20039;-79
2022/06/12 02:37:41;;;;;;;5.18;0.88;;;;;;;19.77;50.84;101671.59;5138569;28;20101;-78
2022/06/12 02:40:21;;;;;;;0.25;0.25;;;;;;;19.75;51.03;101669.94;5137575;28;20054;-79
2022/06/12 02:42:53;;;;;;;0.70;0.70;;;;;;;19.70;50.92;101669.28;5139385;28;20037;-79
2022/06/12 02:45:35;;;;;;;0.60;0.60;;;;;;;19.67;50.89;101668.50;5153127;28;20055;-78
2022/06/12 02:48:07;;;;;;;1.65;0.60;;;;;;;19.64;51.34;101671.34;5121496;28;20034;-79
2022/06/12 02:50:49;;;;;;;2.15;1.23;;;;;;;19.63;51.06;101674.06;5137029;28;20098;-79
2022/06/12 02:53:23;;;;;;;1.30;0.85;;;;;;;19.58;51.15;101665.47;5144707;28;20602;-79
2022/06/12 02:56:03;;;;;;;0.80;0.55;;;;;;;19.50;51.38;101674.69;5139857;28;20325;-78
2022/06/12 02:58:43;;;;;;;0.57;0.57;;;;;;;19.49;51.25;101669.44;5139023;28;20121;-79
2022/06/12 03:01:20;;;;;;;0.28;0.28;;;;;;;19.44;51.64;101677.66;5154525;28;20059;-79
2022/06/12 03:04:20;;;;;;;0.43;0.43;;;;;;;19.41;51.48;101668.97;5119715;28;20128;-79
2022/06/12 03:06:51;;;;;;;1.20;1.10;;;;;;;19.33;51.47;101677.31;5135918;28;20079;-78
2022/06/12 03:09:21;;;;;;;2.15;1.58;;;;;;;19.29;51.43;101670.44;5127310;28;20027;-79
2022/06/12 03:11:54;;;;;;;0.50;0.50;;;;;;;19.22;51.22;101675.19;5149699;28;20030;-79
2022/06/12 03:14:25;;;;;;;0.50;0.50;;;;;;;19.18;51.14;101674.47;5119096;28;20042;-79
2022/06/12 03:16:56;;;;;;;0.47;0.47;;;;;;;19.14;51.68;101682.66;5138324;28;20114;-79
2022/06/12 03:19:38;;;;;;;0.70;0.70;;;;;;;19.11;51.38;101683.69;5134534;28;20122;-79
2022/06/12 03:22:24;;;;;;;0.57;0.57;;;;;;;19.07;51.59;101675.94;5151191;28;20030;-79
2022/06/12 03:25:33;;;;;;;0.75;0.70;;;;;;;18.99;51.64;101673.63;5103567;28;20050;-79
2022/06/12 03:28:33;;;;;;;0.30;0.30;;;;;;;18.96;51.64;101679.09;5119966;28;20030;-79
2022/06/12 03:31:15;;;;;;;1.95;1.25;;;;;;;18.95;51.69;101678.22;5313552;23;20134;-80
2022/06/12 03:33:55;;;;;;;0.70;0.70;;;;;;;18.89;51.77;101683.81;5150105;28;20034;-82
2022/06/12 03:36:32;;;;;;;13.10;3.67;;;;;;;18.95;52.40;101685.34;5149473;28;20421;-80
2022/06/12 03:39:17;;;;;;;0.70;0.70;;;;;;;18.85;51.93;101685.75;5160169;28;20549;-80
2022/06/12 03:42:33;;;;;;;1.20;1.13;;;;;;;18.83;52.21;101695.56;5107584;28;20047;-80
2022/06/12 03:45:10;;;;;;;3.60;2.15;;;;;;;18.81;52.13;101693.94;5128909;28;20034;-81
2022/06/12 03:47:44;;;;;;;2.83;1.98;;;;;;;18.79;52.31;101693.13;5140065;28;20042;-81
2022/06/12 03:50:27;;;;;;;0.35;0.35;;;;;;;18.77;52.30;101697.66;5099569;28;20284;-79
2022/06/12 03:53:10;;;;;;;;;;;;;;;18.74;52.30;101696.00;5105193;28;20610;-79
2022/06/12 03:59:01;;;;;;;1.58;1.33;;;;;;;18.68;52.45;101705.13;5127008;28;20035;-79
2022/06/12 04:01:32;;;;;;;10.35;4.00;;;;;;;18.67;52.42;101706.06;5126422;28;20051;-80
2022/06/12 04:04:04;;;;;;;0.65;0.65;;;;;;;18.64;52.61;101700.88;5120966;28;20074;-79
2022/06/12 04:06:36;;;;;;;1.23;0.98;;;;;;;18.62;52.42;101701.91;5139058;28;20034;-79
2022/06/12 04:09:15;;;;;;;2.25;2.05;;;;;;;18.59;52.54;101696.72;5112846;28;20359;-81
2022/06/12 04:11:54;;;;;;;8.18;2.33;;;;;;;18.57;52.48;101699.44;5129853;28;20035;-81
2022/06/12 04:14:30;;;;;;;3.72;2.17;;;;;;;18.56;52.83;101698.56;5131334;28;20042;-80
2022/06/12 04:17:04;;;;;;;1.88;0.75;;;;;;;18.54;52.92;101702.22;5090045;28;20039;-81
2022/06/12 04:22:51;;;;;;;2.08;1.52;;;;;;;18.52;53.23;101697.00;5129398;28;20435;-79
2022/06/12 04:25:24;;;;;;;1.15;1.05;;;;;;;18.52;53.37;101694.34;5116864;28;20471;-79
2022/06/12 04:27:55;;;;;;;0.68;0.68;;;;;;;18.49;53.46;101702.44;5138462;28;20953;-80
2022/06/12 04:30:32;;;;;;;2.15;1.15;;;;;;;18.52;53.44;101691.69;5135436;28;20050;-79
2022/06/12 04:33:06;;;;;;;3.05;1.55;;;;;;;18.50;53.93;101698.84;5115623;28;20032;-79
2022/06/12 04:35:45;;;;;;;5.38;0.70;;;;;;;18.52;54.60;101696.09;5123831;28;20471;-81
2022/06/12 04:38:16;;;;;;;0.40;0.40;;;;;;;18.49;53.72;101697.13;5145368;28;20057;-81
2022/06/12 04:40:47;;;;;;;5.45;1.40;;;;;;;18.45;53.70;101695.53;5131867;28;20121;-83
2022/06/12 04:43:17;;;;;;;0.95;0.82;;;;;;;18.45;53.78;101695.53;5130483;28;20043;-81
2022/06/12 04:45:48;;;;;;;0.63;0.63;;;;;;;18.45;53.62;101698.19;5131759;28;20627;-82
2022/06/12 04:48:29;;;;;;;0.95;0.95;;;;;;;18.50;54.06;101700.66;5114507;28;20054;-81
2022/06/12 04:51:00;;;;;;;0.85;0.85;;;;;;;18.50;54.87;101706.81;5114873;28;20043;-82
2022/06/12 04:53:31;;;;;;;2.10;1.98;;;;;;;18.47;54.74;101698.97;5133503;28;20417;-82
2022/06/12 04:56:02;;;;;;;1.15;1.00;;;;;;;18.49;54.85;101702.44;5147727;28;20083;-80
2022/06/12 04:58:33;;;;;;;0.38;0.38;;;;;;;18.46;56.44;101697.28;5126942;28;20955;-82
2022/06/12 05:01:03;;;;;;;4.03;0.88;;;;;;;18.53;55.53;101698.72;5142735;28;20035;-81
2022/06/12 05:03:35;;;;;;;0.63;0.63;;;;;;;18.52;56.08;101702.31;5144889;28;20711;-82
2022/06/12 05:06:06;;;;;;;1.98;1.45;;;;;;;18.38;57.41;101694.94;5123435;28;20691;-81
2022/06/12 05:08:37;;;;;;;1.00;0.88;;;;;;;18.47;56.39;101698.97;5129826;28;20041;-81
2022/06/12 05:11:07;;;;;;;1.27;1.17;;;;;;;18.39;58.32;101695.78;5115058;28;20407;-81
2022/06/12 05:13:39;;;;;;;1.05;0.95;;;;;;;18.50;56.52;101687.38;5133841;28;20035;-81
2022/06/12 05:16:20;;;;;;;2.40;0.75;;;;;;;18.47;56.12;101696.31;5125791;28;20125;-82
2022/06/12 05:18:50;;;;;;;0.80;0.80;;;;;;;18.38;58.67;101699.41;5148659;28;20503;-81
2022/06/12 05:21:22;;;;;;;0.32;0.32;;;;;;;18.30;57.93;101698.88;5128501;28;20126;-81
2022/06/12 05:23:52;;;;;;;1.85;0.88;;;;;;;18.15;60.60;101698.59;5111006;28;20038;-81
2022/06/12 05:26:24;;;;;;;1.08;0.98;;;;;;;18.27;59.40;101699.00;5132998;28;20042;-83
2022/06/12 05:28:55;;;;;;;0.82;0.82;;;;;;;18.29;58.26;101699.81;5126122;28;20533;-81
2022/06/12 05:31:26;;;;;;;0.45;0.45;;;;;;;18.35;57.13;101699.53;5119948;28;20061;-81
2022/06/12 05:33:57;;;;;;;4.05;1.33;;;;;;;18.35;56.70;101704.84;5122972;28;20114;-80
2022/06/12 05:36:28;;;;;;;0.40;0.40;;;;;;;18.38;57.88;101710.03;5122600;28;20061;-81
2022/06/12 05:38:58;;;;;;;2.65;1.50;;;;;;;18.34;56.76;101713.75;5127609;28;20122;-82
2022/06/12 05:41:29;;;;;;;1.88;1.40;;;;;;;18.22;57.46;101710.69;5129844;28;20086;-80
2022/06/12 05:43:59;;;;;;;1.02;1.02;;;;;;;18.34;57.25;101709.31;5129220;28;20027;-81
2022/06/12 05:46:30;;;;;;;0.30;0.30;;;;;;;18.25;57.53;101712.38;5125664;28;20039;-80
2022/06/12 05:49:02;;;;;;;2.72;0.60;;;;;;;18.37;56.51;101713.63;5122076;28;20028;-77
2022/06/12 05:51:33;;;;;;;1.15;0.98;;;;;;;18.37;56.33;101713.63;5125665;28;20766;-81
2022/06/12 05:54:04;;;;;;;0.30;0.30;;;;;;;18.35;56.63;101715.47;5123908;28;20130;-81
2022/06/12 05:56:35;;;;;;;0.43;0.43;;;;;;;18.39;56.24;101722.38;5130391;28;20125;-83
2022/06/12 05:59:06;;;;;;;0.63;0.63;;;;;;;18.11;57.67;101717.41;5127306;28;20042;-81
2022/06/12 06:01:39;;;;;;;2.95;1.85;;;;;;;18.06;57.11;101720.25;5103334;28;20043;-81
2022/06/12 06:04:10;;;;;;;;;;;;;;;18.23;56.60;101709.75;5120454;28;20053;-81
2022/06/12 06:06:54;;;;;;;0.88;0.80;;;;;;;18.29;56.48;101726.38;5141645;28;19977;-81
2022/06/12 06:09:25;;;;;;;;;;;;;;;18.34;56.06;101713.75;5097955;28;20058;-80
2022/06/12 06:11:55;;;;;;;0.60;0.60;;;;;;;18.38;55.60;101720.66;5140393;28;19953;-81
2022/06/12 06:14:26;;;;;;;0.20;0.20;;;;;;;18.34;55.63;101716.41;5123777;28;20391;-80
2022/06/12 06:16:57;;;;;;;0.57;0.57;;;;;;;18.38;55.31;101721.50;5115221;28;20375;-80
2022/06/12 06:19:28;;;;;;;0.75;0.75;;;;;;;18.12;55.58;101714.69;5119545;28;20043;-82
2022/06/12 06:21:58;;;;;;;5.95;0.63;;;;;;;18.29;55.28;101719.25;5130073;28;20480;-82
2022/06/12 06:24:29;;;;;;;0.50;0.50;;;;;;;18.33;55.35;101722.63;5140438;28;20074;-81
2022/06/12 06:26:59;;;;;;;8.77;1.20;;;;;;;18.39;55.40;101728.56;5133597;28;20403;-82
2022/06/12 06:29:30;;;;;;;0.45;0.45;;;;;;;18.38;55.11;101725.97;5132401;28;20161;-83
2022/06/12 06:32:00;;;;;;;0.75;0.52;;;;;;;18.39;54.68;101723.25;5134219;28;20086;-82
2022/06/12 06:34:31;;;;;;;0.30;0.30;;;;;;;18.40;54.32;101729.41;5130648;28;20043;-81
2022/06/12 06:37:03;;;;;;;0.82;0.80;;;;;;;18.38;54.39;101715.34;5118263;28;20435;-83
2022/06/12 06:39:34;;;;;;;0.30;0.30;;;;;;;18.46;54.40;101722.97;5119095;28;20539;-81
2022/06/12 06:42:07;;;;;;;1.23;1.08;;;;;;;18.21;54.18;101710.75;5134305;28;20058;-80
2022/06/12 06:47:27;;;;;;;0.93;0.52;;;;;;;18.40;53.86;101726.75;5127107;28;20062;-82
2022/06/12 06:49:57;;;;;;;1.27;0.47;;;;;;;18.36;53.90;101722.53;5153985;28;20039;-81
2022/06/12 06:52:28;;;;;;;2.33;1.15;;;;;;;18.39;53.95;101730.34;5148516;28;20613;-81
2022/06/12 06:54:58;;;;;;;0.40;0.40;;;;;;;18.28;53.43;101728.16;5112681;28;20047;-81
2022/06/12 06:57:29;;;;;;;3.58;1.17;;;;;;;18.20;53.89;101727.63;5118787;28;20035;-81
2022/06/12 07:00:00;;;;;;;0.90;0.90;;;;;;;18.21;53.67;101727.59;5107912;28;20039;-80
2022/06/12 07:02:30;;;;;;;1.00;0.95;;;;;;;18.19;53.12;101732.09;5123565;28;20573;-81
2022/06/12 07:05:02;;;;;;;0.20;0.20;;;;;;;18.30;53.27;101733.44;5123451;28;20031;-81
2022/06/12 07:07:36;;;;;;;2.53;1.27;;;;;;;18.24;52.82;101724.78;5143629;28;20118;-83
2022/06/12 07:10:09;;;;;;;2.10;0.45;;;;;;;18.37;53.09;101732.22;5124471;28;20567;-82
2022/06/12 07:12:39;;;;;;;;;;;;;;;18.42;52.49;101729.38;5137313;28;20050;-82
2022/06/12 07:15:11;;;;;;;0.20;0.20;;;;;;;18.30;52.32;101744.06;5126382;28;19922;-81
2022/06/12 07:17:42;;;;;;;0.38;0.38;;;;;;;18.35;52.35;101734.06;5127325;28;20363;-83
2022/06/12 07:20:16;;;;;;;0.43;0.40;;;;;;;18.41;52.46;101736.44;5143443;28;20062;-84
2022/06/12 07:22:47;;;;;;;0.20;0.20;;;;;;;18.27;50.97;101739.72;5138136;28;20086;-81
2022/06/12 07:25:19;;;;;;;0.35;0.35;;;;;;;18.21;51.83;101730.25;5138160;28;20137;-82
2022/06/12 07:27:52;;;;;;;0.22;0.22;;;;;;;18.34;51.99;101729.69;5128922;28;20030;-83
2022/06/12 07:30:23;;;;;;;0.77;0.63;;;;;;;18.37;52.64;101730.41;5112813;28;20043;-82
2022/06/12 07:32:54;;;;;;;1.95;0.85;;;;;;;18.48;51.49;101721.13;5130805;28;20031;-80
2022/06/12 07:35:24;;;;;;;0.22;0.22;;;;;;;18.42;51.01;101726.72;5143366;28;20046;-81
2022/06/12 07:37:56;;;;;;;0.20;0.20;;;;;;;18.49;51.66;101730.81;5126138;28;20480;-81
2022/06/12 07:40:31;;;;;;;0.30;0.30;;;;;;;18.55;51.09;101727.88;5118014;28;20030;-82
2022/06/12 07:43:02;;;;;;;0.55;0.43;;;;;;;18.54;50.84;101715.50;5111502;28;20110;-81
2022/06/12 07:45:33;;;;;;;0.32;0.32;;;;;;;18.53;51.58;101735.03;5131072;28;20125;-80
2022/06/12 07:48:04;;;;;;;2.03;1.10;;;;;;;18.47;50.70;101727.34;5115316;28;20329;-82
2022/06/12 07:50:39;;;;;;;0.52;0.52;;;;;;;18.40;50.97;101732.06;5123767;28;20053;-81
2022/06/12 07:53:12;;;;;;;0.30;0.30;;;;;;;18.44;51.44;101732.78;5126444;28;20063;-82
2022/06/12 07:55:43;;;;;;;0.30;0.30;;;;;;;18.53;50.76;101743.91;5125485;28;20110;-82
2022/06/12 07:58:14;;;;;;;0.50;0.50;;;;;;;18.55;51.33;101728.72;5110386;28;20426;-81
2022/06/12 08:00:45;;;;;;;0.35;0.35;;;;;;;18.39;49.05;101733.00;5125606;28;20047;-81
2022/06/12 08:03:16;;;;;;;0.85;0.85;;;;;;;18.36;49.13;101734.00;5133610;28;20098;-82
2022/06/12 08:05:47;;;;;;;0.45;0.45;;;;;;;18.32;49.55;101747.47;5122527;28;20039;-84
2022/06/12 08:08:18;;;;;;;0.20;0.20;;;;;;;18.46;49.97;101738.91;5127739;28;20391;-81
2022/06/12 08:10:52;;;;;;;0.85;0.85;;;;;;;18.41;50.14;101739.09;5129661;28;20035;-81
2022/06/12 08:13:23;;;;;;;7.65;1.67;;;;;;;18.47;50.59;101741.50;5125481;28;20027;-80
2022/06/12 08:15:54;;;;;;;3.00;0.30;;;;;;;18.61;50.24;101740.88;5135821;28;20617;-79
2022/06/12 08:18:25;;;;;;;0.40;0.40;;;;;;;18.63;50.32;101738.19;5107326;28;20039;-79
2022/06/12 08:21:00;;;;;;;0.20;0.20;;;;;;;18.61;50.07;101742.69;5117359;28;20035;-80
2022/06/12 08:23:39;;;;;;;0.30;0.30;;;;;;;18.62;49.80;101744.41;5105725;28;20031;-81
2022/06/12 08:26:14;;;;;;;0.32;0.32;;;;;;;18.66;49.70;101730.94;5100879;28;20106;-81
2022/06/12 08:28:45;;;;;;;0.35;0.35;;;;;;;18.78;49.50;101742.78;5090299;28;20054;-82
2022/06/12 08:31:26;;;;;;;1.05;1.00;;;;;;;18.82;50.02;101741.72;5105500;28;20533;-82
2022/06/12 08:34:03;;;;;;;0.20;0.20;;;;;;;18.84;49.18;101739.84;5122652;28;20031;-83
2022/06/12 08:36:35;;;;;;;0.28;0.28;;;;;;;18.87;49.78;101737.06;5136146;28;20070;-83
2022/06/12 08:39:07;;;;;;;0.55;0.55;;;;;;;18.96;49.41;101732.28;5116957;28;20716;-79
2022/06/12 08:42:03;;;;;;;0.30;0.30;;;;;;;18.99;48.56;101737.44;5127208;28;20554;-79
2022/06/12 08:44:48;;;;;;;1.00;0.95;;;;;;;18.81;48.13;101720.53;5090193;28;20039;-80
2022/06/12 08:47:19;;;;;;;0.20;0.20;;;;;;;18.88;48.49;101719.31;5124717;28;20585;-80
2022/06/12 08:50:10;;;;;;;0.20;0.20;;;;;;;19.00;49.36;101717.91;5121176;28;20178;-80
2022/06/12 08:52:50;;;;;;;0.35;0.30;;;;;;;18.93;49.04;101716.47;5145077;28;20035;-79
2022/06/12 08:55:53;;;;;;;0.20;0.20;;;;;;;19.08;48.28;101714.88;5120412;28;20046;-82
2022/06/12 08:58:30;;;;;;;;;;;;;;;19.08;49.32;101705.09;5096415;28;20045;-83
2022/06/12 09:01:01;;;;;;;0.20;0.20;;;;;;;19.13;49.46;101713.72;5118582;28;20183;-79
2022/06/12 09:03:38;;;;;;;0.43;0.43;;;;;;;19.25;48.86;101706.09;5125080;28;20026;-83
2022/06/12 09:06:17;;;;;;;1.25;0.80;;;;;;;19.24;48.38;101704.38;5108493;28;20042;-83
2022/06/12 09:08:55;;;;;;;0.20;0.20;;;;;;;19.24;48.25;101693.72;5125436;28;20046;-82
2022/06/12 09:11:31;;;;;;;0.40;0.40;;;;;;;19.26;47.91;101702.50;5100892;28;20066;-80
2022/06/12 09:14:17;;;;;;;0.20;0.20;;;;;;;19.22;48.05;101707.09;5119401;28;20272;-80
2022/06/12 09:17:20;;;;;;;0.40;0.40;;;;;;;19.29;48.79;101691.72;5134419;28;20530;-80
2022/06/12 09:20:34;;;;;;;0.20;0.20;;;;;;;19.23;48.02;101690.22;5136532;28;20103;-85
2022/06/12 09:23:04;;;;;;;;;;;;;;;19.39;48.95;101697.44;5080689;28;20035;-82
2022/06/12 09:25:55;;;;;;;0.30;0.30;;;;;;;19.46;48.78;101699.72;5107715;28;19929;-84
2022/06/12 09:29:04;;;;;;;0.57;0.47;;;;;;;19.57;48.27;101690.34;5112140;28;20089;-82
2022/06/12 09:31:51;;;;;;;0.20;0.20;;;;;;;19.58;48.40;101694.72;5127959;28;20039;-86
2022/06/12 09:34:29;;;;;;;0.32;0.32;;;;;;;19.58;48.43;101686.75;5090064;28;20023;-84
2022/06/12 09:40:43;;;;;;;0.20;0.20;;;;;;;19.69;48.85;101683.53;5105234;28;20102;-85
2022/06/12 09:43:29;;;;;;;0.20;0.20;;;;;;;19.75;48.41;101677.94;5122576;28;20499;-80
2022/06/12 09:46:02;;;;;;;1.65;1.20;;;;;;;19.80;48.21;101683.88;5107809;28;20065;-82
2022/06/12 09:48:55;;;;;;;0.20;0.20;;;;;;;19.79;48.93;101680.34;5122972;28;20058;-82
2022/06/12 09:51:28;;;;;;;0.50;0.50;;;;;;;19.94;49.25;101680.53;5116800;28;20046;-80
2022/06/12 09:54:24;;;;;;;0.55;0.52;;;;;;;19.93;49.25;101676.16;5102716;28;20035;-79
2022/06/12 09:57:09;;;;;;;0.20;0.20;;;;;;;20.00;48.79;101671.38;5121245;28;20416;-83
2022/06/12 09:59:48;;;;;;;0.22;0.22;;;;;;;20.03;48.86;101680.06;5121001;28;20050;-81
2022/06/12 10:02:30;;;;;;;0.20;0.20;;;;;;;20.20;48.76;101675.66;5130272;28;20026;-82
2022/06/12 10:05:22;;;;;;;2.25;0.73;;;;;;;20.21;48.23;101669.38;5119070;28;20051;-82
2022/06/12 10:08:03;;;;;;;1.73;0.85;;;;;;;20.29;47.65;101677.81;5106584;28;20038;-83
2022/06/12 10:10:41;;;;;;;0.82;0.82;;;;;;;20.40;47.93;101672.78;5088585;28;20523;-80
2022/06/12 10:13:24;;;;;;;0.20;0.20;;;;;;;20.35;48.47;101674.84;5108420;28;20459;-82
2022/06/12 10:16:02;;;;;;;1.08;0.57;;;;;;;20.36;48.43;101675.69;5134134;28;20322;-79
2022/06/12 10:18:40;;;;;;;0.20;0.20;;;;;;;20.32;48.23;101675.00;5126090;28;20207;-79
2022/06/12 10:21:51;;;;;;;0.95;0.80;;;;;;;20.41;48.88;101669.19;5124524;28;20291;-81
2022/06/12 10:24:22;;;;;;;0.20;0.20;;;;;;;20.51;48.77;101666.03;5124122;28;20066;-80
2022/06/12 10:27:08;;;;;;;0.25;0.25;;;;;;;20.53;48.68;101665.00;5123931;28;20428;-79
2022/06/12 10:29:41;;;;;;;0.30;0.30;;;;;;;20.60;47.95;101665.53;5104182;28;20133;-81
2022/06/12 10:32:18;;;;;;;1.00;0.90;;;;;;;20.69;48.50;101661.47;5118436;28;20395;-80
2022/06/12 10:34:56;;;;;;;0.45;0.45;;;;;;;20.60;47.61;101661.03;5109615;28;20299;-81
2022/06/12 10:37:28;;;;;;;7.60;1.17;;;;;;;20.68;48.07;101659.75;5122987;28;20035;-83
2022/06/12 10:40:01;;;;;;;7.00;1.63;;;;;;;20.73;48.41;101650.59;5108416;28;20039;-83
2022/06/12 10:42:38;;;;;;;0.40;0.40;;;;;;;20.81;47.57;101646.66;5104980;28;20464;-85
2022/06/12 10:45:20;;;;;;;0.30;0.30;;;;;;;20.74;46.94;101647.00;5107001;28;20102;-80
2022/06/12 10:47:53;;;;;;;0.47;0.47;;;;;;;20.75;46.40;101640.72;5111527;28;20065;-81
2022/06/12 10:50:37;;;;;;;0.20;0.20;;;;;;;20.80;47.35;101639.59;5114688;28;20073;-84
2022/06/12 10:53:13;;;;;;;0.50;0.50;;;;;;;20.91;46.74;101638.03;5132324;28;20551;-80
2022/06/12 10:55:53;;;;;;;0.20;0.20;;;;;;;21.00;46.10;101641.13;5107652;28;20096;-80
2022/06/12 10:58:32;;;;;;;0.32;0.32;;;;;;;21.13;46.03;101635.97;5130704;28;20196;-83
2022/06/12 11:01:22;;;;;;;0.28;0.28;;;;;;;21.09;46.16;101634.44;5113162;28;20045;-83
2022/06/12 11:04:12;;;;;;;0.80;0.80;;;;;;;21.13;44.64;101641.28;5129630;28;20034;-81
2022/06/12 11:06:52;;;;;;;0.50;0.50;;;;;;;21.32;46.16;101628.63;5143509;28;20521;-79
2022/06/12 11:09:37;;;;;;;1.90;0.90;;;;;;;21.39;44.32;101623.78;5112666;28;20106;-78
2022/06/12 11:12:24;;;;;;;4.63;1.10;;;;;;;21.36;44.85;101632.81;5155632;28;20022;-86
2022/06/12 11:15:14;;;;;;;0.40;0.40;;;;;;;21.44;44.33;101645.72;5156980;28;20126;-82
2022/06/12 11:18:01;;;;;;;1.73;1.08;;;;;;;21.44;45.71;101628.88;5126816;28;20553;-83
2022/06/12 11:20:35;;;;;;;23.40;1.67;;;;;;;21.57;44.35;101627.19;5171066;23;20045;-82
2022/06/12 11:23:29;;;;;;;0.38;0.38;;;;;;;21.66;44.39;101634.69;5179241;28;20114;-83
2022/06/12 11:26:24;;;;;;;0.30;0.30;;;;;;;21.67;44.24;101625.72;5111835;28;20042;-81
2022/06/12 11:29:13;;;;;;;2.17;0.85;;;;;;;21.83;44.31;101625.63;5138207;28;20037;-80
2022/06/12 11:32:06;;;;;;;1.02;0.55;;;;;;;21.83;44.89;101630.97;5119533;28;20148;-80
2022/06/12 11:35:00;;;;;;;0.40;0.40;;;;;;;21.77;43.10;101620.66;5145006;28;20046;-81
2022/06/12 11:37:40;;;;;;;0.30;0.30;;;;;;;21.89;44.83;101621.75;5162057;28;20657;-81
2022/06/12 11:40:50;;;;;;;0.50;0.50;;;;;;;21.96;43.09;101620.41;5169053;28;20113;-80
2022/06/12 11:43:40;;;;;;;1.45;1.35;;;;;;;22.13;44.11;101615.84;5072772;29;20031;-80
2022/06/12 11:46:39;;;;;;;0.80;0.80;;;;;;;22.15;44.24;101608.59;5138710;28;20097;-82
2022/06/12 11:49:25;;;;;;;0.20;0.20;;;;;;;22.17;44.24;101601.34;5165176;28;20049;-84
2022/06/12 11:52:14;;;;;;;0.63;0.63;;;;;;;22.31;43.25;101601.34;5149519;28;20079;-80
2022/06/12 11:55:00;;;;;;;3.30;2.28;;;;;;;22.43;43.69;101597.06;5120885;28;20133;-79
2022/06/12 11:58:05;;;;;;;0.20;0.20;;;;;;;22.53;44.44;101596.47;5150027;28;20305;-79
2022/06/12 12:00:52;;;;;;;6.40;0.63;;;;;;;22.63;44.40;101595.78;5134297;28;20065;-81
2022/06/12 12:03:37;;;;;;;3.40;0.75;;;;;;;22.75;43.90;101596.78;5156135;28;20022;-80
2022/06/12 12:06:27;;;;;;;0.20;0.20;;;;;;;22.85;44.29;101590.84;5160712;28;20052;-81
2022/06/12 12:09:14;;;;;;;0.20;0.20;;;;;;;22.98;43.33;101574.84;5145256;28;20472;-80
2022/06/12 12:11:53;;;;;;;0.85;0.77;;;;;;;23.13;43.50;101581.00;5133671;28;20259;-79
2022/06/12 12:14:29;;;;;;;0.75;0.75;;;;;;;23.20;43.34;101585.88;5163157;28;20060;-79
2022/06/12 12:17:20;;;;;;;0.40;0.40;;;;;;;23.33;41.17;101579.69;5136511;28;20034;-80
2022/06/12 12:19:55;;;;;;;0.40;0.40;;;;;;;23.36;41.10;101587.50;5161218;28;20038;-81
2022/06/12 12:23:23;;;;;;;2.83;0.75;;;;;;;23.52;40.78;101580.13;5164488;28;20117;-82
2022/06/12 12:26:16;;;;;;;6.93;3.00;;;;;;;23.47;40.82;101579.59;5161009;28;20045;-83
2022/06/12 12:29:01;;;;;;;0.55;0.52;;;;;;;23.51;42.42;101575.75;5159161;28;20648;-81
2022/06/12 12:31:35;;;;;;;0.35;0.35;;;;;;;23.59;40.70;101575.22;5154413;28;20046;-80
2022/06/12 12:34:08;;;;;;;6.03;1.35;;;;;;;23.58;41.05;101577.06;5185732;28;20038;-82